Terminal Aerodrome Forecast
Issued by NWS

Home | Current Version | Previous Version | Text Only | Print | Product List | Glossary On
Versions: 1 2 3 4 5 6 7 8 9 10 11 12 13 14 15 16 17 18 19 20 21
075
FTUS43 KAPX 271720
TAFMBL
TAF
KMBL 271720Z 2718/2818 13006KT P6SM SCT050 BKN200
     FM272000 14007KT P6SM VCTS BKN040CB
     FM280300 VRB03KT 3SM -SHRA BR OVC035
     FM281400 20008KT 5SM -SHRA BR OVC025
      AMD LTD TO CLD VIS AND WIND=

USA.gov is the U.S. government's official web portal to all federal, state and local government web resources and services.